createdAt,value
2018-06-05T00:02:17.984Z,99.90
2018-06-05T00:04:46.102Z,99.90
2018-06-05T00:07:14.211Z,99.90
2018-06-05T00:09:42.343Z,99.90
2018-06-05T00:12:10.494Z,99.90
2018-06-05T00:14:38.610Z,99.90
2018-06-05T00:17:06.726Z,99.90
2018-06-05T00:19:34.858Z,99.90
2018-06-05T00:22:02.969Z,99.90
2018-06-05T00:24:31.089Z,99.90
2018-06-05T00:26:59.241Z,99.90
2018-06-05T00:29:27.320Z,99.90
2018-06-05T00:31:55.421Z,99.90
2018-06-05T00:34:23.577Z,99.90
2018-06-05T00:36:51.688Z,99.90
2018-06-05T00:39:19.805Z,99.90
2018-06-05T00:41:47.938Z,99.90
2018-06-05T00:44:16.068Z,99.90
2018-06-05T00:46:44.174Z,99.90
2018-06-05T00:49:12.311Z,99.90
2018-06-05T00:51:52.097Z,99.90
2018-06-05T00:54:20.225Z,99.90
2018-06-05T00:56:48.338Z,99.90
2018-06-05T00:59:16.462Z,99.90
2018-06-05T01:01:44.565Z,99.90
2018-06-05T01:04:12.682Z,99.90
2018-06-05T01:06:40.794Z,99.90
2018-06-05T01:09:08.903Z,99.90
2018-06-05T01:11:37.028Z,99.90
2018-06-05T01:14:05.142Z,99.90
2018-06-05T01:16:33.254Z,99.90
2018-06-05T01:19:01.357Z,99.90
2018-06-05T01:21:29.475Z,99.90
2018-06-05T01:23:57.574Z,99.90
2018-06-05T01:26:25.706Z,99.90
2018-06-05T01:28:53.790Z,99.90
2018-06-05T01:31:21.901Z,99.90
2018-06-05T01:33:50.001Z,99.90
2018-06-05T01:36:18.107Z,99.90
2018-06-05T01:38:46.218Z,99.90
2018-06-05T01:41:14.310Z,99.90
2018-06-05T01:43:42.445Z,99.90
2018-06-05T01:46:10.557Z,99.90
2018-06-05T01:48:38.654Z,99.90
2018-06-05T01:51:06.762Z,99.90
2018-06-05T01:53:34.880Z,99.90
2018-06-05T01:56:02.983Z,99.90
2018-06-05T01:58:31.118Z,99.90
2018-06-05T02:00:59.226Z,99.90
2018-06-05T02:03:27.349Z,99.90
2018-06-05T02:05:55.454Z,99.90
2018-06-05T02:08:23.562Z,99.90
2018-06-05T02:10:51.941Z,99.90
2018-06-05T02:13:20.033Z,99.90
2018-06-05T02:18:16.052Z,99.90
2018-06-05T02:20:44.155Z,99.90
2018-06-05T02:23:12.253Z,99.90
2018-06-05T02:25:40.353Z,99.90
2018-06-05T02:28:08.470Z,99.90
2018-06-05T02:30:36.620Z,99.90
2018-06-05T02:33:04.737Z,99.90
2018-06-05T02:35:32.858Z,99.90
2018-06-05T02:38:00.977Z,99.90
2018-06-05T02:40:29.076Z,99.90
2018-06-05T02:42:57.178Z,99.90
2018-06-05T02:45:25.277Z,99.90
2018-06-05T02:47:53.426Z,99.90
2018-06-05T02:50:21.532Z,99.90
2018-06-05T02:52:49.667Z,99.90
2018-06-05T02:55:17.778Z,99.90
2018-06-05T02:57:46.338Z,99.90
2018-06-05T03:00:14.443Z,99.90
2018-06-05T03:02:42.658Z,99.90
2018-06-05T03:05:10.758Z,99.90
2018-06-05T03:07:38.914Z,99.90
2018-06-05T03:10:07.038Z,99.90
2018-06-05T03:12:35.157Z,99.90
2018-06-05T03:15:03.262Z,99.90
2018-06-05T03:17:31.398Z,99.90
2018-06-05T03:19:59.511Z,99.90
2018-06-05T03:22:27.630Z,99.90
2018-06-05T03:24:55.775Z,99.90
2018-06-05T03:27:23.953Z,99.90
2018-06-05T03:29:52.037Z,99.90
2018-06-05T03:32:20.162Z,99.90
2018-06-05T03:34:48.293Z,99.90
2018-06-05T03:37:16.417Z,99.90
2018-06-05T03:39:44.531Z,99.90
2018-06-05T03:42:12.731Z,99.90
2018-06-05T03:44:40.847Z,99.90
2018-06-05T03:47:08.957Z,99.90
2018-06-05T03:49:41.592Z,99.90
2018-06-05T03:52:10.067Z,99.90
2018-06-05T03:54:38.262Z,99.90
2018-06-05T03:57:06.618Z,99.90
2018-06-05T03:59:34.754Z,99.90
2018-06-05T04:02:02.868Z,99.90
2018-06-05T04:04:30.978Z,99.90
2018-06-05T04:06:59.082Z,99.90
2018-06-05T04:09:27.218Z,99.90
2018-06-05T04:11:55.329Z,99.90
2018-06-05T04:14:23.469Z,99.90
2018-06-05T04:16:52.172Z,99.90
2018-06-05T04:19:20.278Z,99.90
2018-06-05T04:21:48.391Z,99.90
2018-06-05T04:24:16.506Z,99.90
2018-06-05T04:26:44.628Z,99.90
2018-06-05T04:29:12.737Z,99.90
2018-06-05T04:31:40.834Z,99.90
2018-06-05T04:34:08.949Z,99.90
2018-06-05T04:36:37.069Z,99.90
2018-06-05T04:39:06.831Z,99.90
2018-06-05T04:41:34.978Z,99.90
2018-06-05T04:44:03.115Z,99.90
2018-06-05T04:46:31.218Z,99.90
2018-06-05T04:48:59.354Z,99.90
2018-06-05T04:51:27.463Z,99.90
2018-06-05T04:53:55.571Z,99.90
2018-06-05T04:56:23.690Z,99.90
2018-06-05T04:58:51.790Z,99.90
2018-06-05T05:01:19.918Z,99.90
2018-06-05T05:03:48.047Z,99.90
2018-06-05T05:06:16.166Z,99.90
2018-06-05T05:08:44.277Z,99.90
2018-06-05T05:11:12.399Z,99.90
2018-06-05T05:13:40.500Z,99.90
2018-06-05T05:16:08.610Z,99.90
2018-06-05T05:18:36.766Z,99.90
2018-06-05T05:21:11.138Z,99.90
2018-06-05T05:23:39.237Z,99.90
2018-06-05T05:26:07.362Z,99.90
2018-06-05T05:28:35.488Z,99.90
2018-06-05T05:31:03.611Z,99.90
2018-06-05T05:33:31.737Z,99.90
2018-06-05T05:35:59.875Z,99.90
2018-06-05T05:38:28.007Z,99.90
2018-06-05T05:40:56.111Z,99.90
2018-06-05T05:43:24.242Z,99.90
2018-06-05T05:45:52.385Z,99.90
2018-06-05T05:48:20.498Z,99.90
2018-06-05T05:50:48.619Z,99.90
2018-06-05T05:53:16.721Z,99.90
2018-06-05T05:55:44.874Z,99.90
2018-06-05T05:58:13.016Z,99.90
2018-06-05T06:00:41.109Z,99.90
2018-06-05T06:03:09.231Z,99.90
2018-06-05T06:05:37.330Z,99.90
2018-06-05T06:08:05.458Z,99.90
2018-06-05T06:10:33.582Z,99.90
2018-06-05T06:13:01.704Z,99.90
2018-06-05T06:15:29.798Z,99.90
2018-06-05T06:17:57.932Z,99.90
2018-06-05T06:20:26.327Z,99.90
2018-06-05T06:22:54.457Z,99.90
2018-06-05T06:25:22.585Z,99.90
2018-06-05T06:27:50.721Z,99.90
2018-06-05T06:30:18.866Z,99.90
2018-06-05T06:32:46.996Z,99.90
2018-06-05T06:35:15.137Z,99.90
2018-06-05T06:37:43.249Z,99.90
2018-06-05T06:42:39.250Z,99.90
2018-06-05T06:45:07.362Z,99.90
2018-06-05T06:47:35.492Z,99.90
2018-06-05T06:50:03.594Z,99.90
2018-06-05T06:52:31.698Z,99.90
2018-06-05T06:54:59.804Z,99.90
2018-06-05T06:57:28.002Z,99.90
2018-06-05T06:59:56.129Z,99.90
2018-06-05T07:02:24.271Z,99.90
2018-06-05T07:04:52.378Z,99.90
2018-06-05T07:07:20.502Z,99.90
2018-06-05T07:09:48.614Z,99.90
2018-06-05T07:12:16.736Z,99.90
2018-06-05T07:14:44.835Z,99.90
2018-06-05T07:17:12.958Z,99.90
2018-06-05T07:19:41.068Z,99.90
2018-06-05T07:22:09.178Z,99.90
2018-06-05T07:24:37.280Z,99.90
2018-06-05T07:27:05.403Z,99.90
2018-06-05T07:29:33.505Z,99.90
2018-06-05T07:32:01.615Z,99.90
2018-06-05T07:34:29.716Z,99.90
2018-06-05T07:36:57.823Z,99.90
2018-06-05T07:39:25.945Z,99.90
2018-06-05T07:41:54.057Z,99.90
2018-06-05T07:44:22.204Z,99.90
2018-06-05T07:46:50.314Z,99.90
2018-06-05T07:49:18.406Z,99.90
2018-06-05T07:51:46.604Z,99.90
2018-06-05T07:54:14.694Z,99.90
2018-06-05T07:56:42.789Z,99.90
2018-06-05T07:59:10.902Z,99.90
2018-06-05T08:01:39.026Z,99.90
2018-06-05T08:04:07.142Z,99.90
2018-06-05T08:06:35.298Z,99.90
2018-06-05T08:09:03.457Z,99.90
2018-06-05T08:11:31.584Z,99.90
2018-06-05T08:13:59.701Z,99.90
2018-06-05T08:16:27.814Z,99.90
2018-06-05T08:18:55.935Z,99.90
2018-06-05T08:21:24.042Z,99.60
2018-06-05T08:23:52.170Z,99.30
2018-06-05T08:26:20.303Z,99.90
2018-06-05T08:28:48.438Z,99.90
2018-06-05T08:31:16.548Z,99.80
2018-06-05T08:33:44.682Z,99.50
2018-06-05T08:36:12.799Z,99.70
2018-06-05T08:38:40.974Z,98.60
2018-06-05T08:41:09.147Z,99.10
2018-06-05T08:43:37.262Z,99.40
2018-06-05T08:46:05.402Z,99.50
2018-06-05T08:48:33.567Z,99.90
2018-06-05T08:51:01.666Z,98.80
2018-06-05T08:53:29.818Z,98.30
2018-06-05T08:55:57.930Z,99.40
2018-06-05T08:58:26.086Z,99.60
2018-06-05T09:00:54.204Z,98.50
2018-06-05T09:03:22.470Z,99.20
2018-06-05T09:05:50.578Z,99.50
2018-06-05T09:08:18.709Z,98.90
2018-06-05T09:10:46.870Z,98.00
2018-06-05T09:13:14.959Z,98.10
2018-06-05T09:15:43.090Z,98.60
2018-06-05T09:18:11.246Z,99.00
2018-06-05T09:20:39.387Z,97.40
2018-06-05T09:23:07.496Z,97.30
2018-06-05T09:25:35.623Z,95.60
2018-06-05T09:28:03.730Z,95.70
2018-06-05T09:30:31.860Z,96.20
2018-06-05T09:32:59.961Z,96.80
2018-06-05T09:35:28.098Z,96.90
2018-06-05T09:37:56.230Z,97.40
2018-06-05T09:40:24.363Z,96.40
2018-06-05T09:42:52.486Z,96.20
2018-06-05T09:45:20.626Z,96.90
2018-06-05T09:47:48.751Z,97.50
2018-06-05T09:50:16.874Z,99.50
2018-06-05T09:52:44.983Z,97.50
2018-06-05T09:55:13.119Z,96.80
2018-06-05T09:57:41.270Z,97.60
2018-06-05T10:00:09.432Z,96.70
2018-06-05T10:05:05.573Z,97.30
2018-06-05T10:07:33.682Z,98.10
2018-06-05T10:10:01.839Z,97.10
2018-06-05T10:12:29.951Z,95.20
2018-06-05T10:14:58.090Z,97.20
2018-06-05T10:17:26.231Z,99.10
2018-06-05T10:19:54.371Z,96.80
2018-06-05T10:22:22.504Z,97.10
2018-06-05T10:24:50.642Z,96.60
2018-06-05T10:27:18.774Z,96.50
2018-06-05T10:29:46.889Z,94.70
2018-06-05T10:32:15.015Z,95.00
2018-06-05T10:34:43.161Z,94.50
2018-06-05T10:37:11.274Z,94.60
2018-06-05T10:39:39.424Z,95.10
2018-06-05T10:42:07.564Z,93.60
2018-06-05T10:44:35.686Z,93.40
2018-06-05T10:47:03.811Z,94.50
2018-06-05T10:49:31.970Z,95.20
2018-06-05T10:52:00.102Z,96.00
2018-06-05T10:54:28.207Z,95.50
2018-06-05T10:56:56.344Z,95.70
2018-06-05T10:59:24.529Z,96.70
2018-06-05T11:01:52.694Z,96.40
2018-06-05T11:04:20.814Z,95.80
2018-06-05T11:06:48.931Z,96.20
2018-06-05T11:09:17.046Z,94.40
2018-06-05T11:11:45.178Z,96.30
2018-06-05T11:14:13.281Z,94.60
2018-06-05T11:16:41.409Z,94.60
2018-06-05T11:19:09.510Z,93.80
2018-06-05T11:21:37.626Z,95.80
2018-06-05T11:24:05.762Z,93.90
2018-06-05T11:26:33.912Z,92.40
2018-06-05T11:29:02.033Z,92.70
2018-06-05T11:31:30.162Z,91.50
2018-06-05T11:33:58.285Z,94.20
2018-06-05T11:36:26.412Z,96.10
2018-06-05T11:38:54.540Z,92.30
2018-06-05T11:41:22.673Z,91.70
2018-06-05T11:43:50.782Z,90.60
2018-06-05T11:46:18.898Z,90.60
2018-06-05T11:48:47.028Z,90.70
2018-06-05T11:51:15.165Z,88.60
2018-06-05T11:53:43.301Z,88.60
2018-06-05T11:56:11.413Z,89.60
2018-06-05T11:58:39.552Z,90.30
2018-06-05T12:01:07.733Z,90.50
2018-06-05T12:03:35.833Z,90.70
2018-06-05T12:06:03.954Z,91.00
2018-06-05T12:08:32.072Z,91.10
2018-06-05T12:11:00.166Z,88.70
2018-06-05T12:13:28.301Z,90.70
2018-06-05T12:15:56.424Z,91.20
2018-06-05T12:18:24.566Z,87.10
2018-06-05T12:20:52.666Z,90.50
2018-06-05T12:23:20.821Z,88.80
2018-06-05T12:25:48.939Z,87.10
2018-06-05T12:28:17.038Z,88.70
2018-06-05T12:30:45.210Z,83.80
2018-06-05T12:33:13.309Z,79.20
2018-06-05T12:35:41.424Z,77.50
2018-06-05T12:38:09.526Z,73.90
2018-06-05T12:40:37.627Z,74.00
2018-06-05T12:43:05.742Z,74.50
2018-06-05T12:45:33.862Z,79.80
2018-06-05T12:48:01.987Z,79.10
2018-06-05T12:52:57.996Z,78.20
2018-06-05T12:55:26.131Z,81.10
2018-06-05T12:57:54.265Z,78.10
2018-06-05T13:00:22.383Z,75.50
2018-06-05T13:02:50.510Z,80.60
2018-06-05T13:05:18.661Z,75.90
2018-06-05T13:07:46.758Z,77.60
2018-06-05T13:10:14.890Z,79.90
2018-06-05T13:12:43.068Z,86.40
2018-06-05T13:15:11.151Z,77.50
2018-06-05T13:17:39.319Z,76.90
2018-06-05T13:20:07.392Z,82.30
2018-06-05T13:22:35.537Z,87.50
2018-06-05T13:25:03.651Z,85.80
2018-06-05T13:27:31.768Z,85.00
2018-06-05T13:29:59.923Z,85.30
2018-06-05T13:32:28.043Z,83.20
2018-06-05T13:34:56.232Z,81.70
2018-06-05T13:37:24.364Z,80.50
2018-06-05T13:39:52.475Z,79.90
2018-06-05T13:42:20.591Z,81.30
2018-06-05T13:44:48.710Z,81.20
2018-06-05T13:47:16.838Z,80.40
2018-06-05T13:49:44.988Z,85.40
2018-06-05T13:52:13.216Z,87.60
2018-06-05T13:54:41.310Z,91.10
2018-06-05T13:57:09.444Z,86.40
2018-06-05T13:59:37.607Z,84.40
2018-06-05T14:02:05.728Z,85.80
2018-06-05T14:04:34.965Z,90.30
2018-06-05T14:07:03.087Z,88.00
2018-06-05T14:09:31.188Z,84.70
2018-06-05T14:11:59.304Z,84.60
2018-06-05T14:14:27.432Z,81.30
2018-06-05T14:16:55.565Z,80.30
2018-06-05T14:19:23.670Z,80.90
2018-06-05T14:21:51.822Z,84.60
2018-06-05T14:24:19.942Z,79.90
2018-06-05T14:26:48.076Z,80.60
2018-06-05T14:29:16.181Z,84.20
2018-06-05T14:31:44.334Z,82.40
2018-06-05T14:34:12.449Z,84.10
2018-06-05T14:36:40.618Z,83.30
2018-06-05T14:39:09.078Z,84.50
2018-06-05T14:41:37.208Z,84.30
2018-06-05T14:44:05.310Z,91.60
2018-06-05T14:46:33.429Z,92.80
2018-06-05T14:51:29.439Z,87.70
2018-06-05T14:53:57.571Z,93.30
2018-06-05T14:56:25.697Z,98.40
2018-06-05T14:58:53.862Z,99.90
2018-06-05T15:01:21.974Z,99.90
2018-06-05T15:03:50.152Z,99.90
2018-06-05T15:06:18.287Z,99.90
2018-06-05T15:08:46.409Z,99.90
2018-06-05T15:11:14.554Z,99.90
2018-06-05T15:13:42.703Z,99.90
2018-06-05T15:16:10.866Z,99.90
2018-06-05T15:18:39.015Z,99.90
2018-06-05T15:21:07.141Z,99.90
2018-06-05T15:23:35.262Z,99.90
2018-06-05T15:26:03.395Z,99.90
2018-06-05T15:28:31.509Z,99.90
2018-06-05T15:30:59.630Z,99.90
2018-06-05T15:33:27.747Z,99.90
2018-06-05T15:35:55.871Z,99.90
2018-06-05T15:38:24.019Z,99.90
2018-06-05T15:40:52.163Z,99.90
2018-06-05T15:43:20.284Z,99.90
2018-06-05T15:45:48.419Z,99.90
2018-06-05T15:48:16.563Z,99.90
2018-06-05T15:50:44.679Z,99.90
2018-06-05T15:53:12.810Z,99.90
2018-06-05T15:55:40.929Z,99.90
2018-06-05T15:58:09.080Z,99.90
2018-06-05T16:00:37.188Z,99.90
2018-06-05T16:03:05.350Z,99.90
2018-06-05T16:05:33.503Z,99.90
2018-06-05T16:08:01.618Z,99.90
2018-06-05T16:10:29.746Z,99.90
2018-06-05T16:12:57.866Z,99.90
2018-06-05T16:15:25.997Z,99.90
2018-06-05T16:17:54.121Z,99.90
2018-06-05T16:20:22.280Z,99.90
2018-06-05T16:22:50.414Z,99.90
2018-06-05T16:25:18.533Z,99.90
2018-06-05T16:27:46.720Z,99.90
2018-06-05T16:30:14.839Z,99.90
2018-06-05T16:32:43.007Z,99.90
2018-06-05T16:35:11.132Z,99.90
2018-06-05T16:37:39.259Z,99.90
2018-06-05T16:40:07.404Z,99.90
2018-06-05T16:42:35.516Z,99.90
2018-06-05T16:45:03.715Z,99.90
2018-06-05T16:47:31.896Z,99.90
2018-06-05T16:49:59.966Z,99.90
2018-06-05T16:52:28.102Z,99.90
2018-06-05T16:54:56.287Z,99.90
2018-06-05T16:57:24.406Z,99.90
2018-06-05T16:59:52.555Z,99.90
2018-06-05T17:02:20.690Z,99.90
2018-06-05T17:04:48.891Z,99.90
2018-06-05T17:07:16.974Z,99.90
2018-06-05T17:09:45.150Z,99.90
2018-06-05T17:12:13.302Z,99.90
2018-06-05T17:14:41.419Z,99.90
2018-06-05T17:17:09.537Z,99.90
2018-06-05T17:19:37.654Z,99.90
2018-06-05T17:22:05.786Z,99.90
2018-06-05T17:24:33.919Z,99.90
2018-06-05T17:27:02.060Z,99.90
2018-06-05T17:29:30.184Z,99.90
2018-06-05T17:31:58.317Z,99.90
2018-06-05T17:34:26.451Z,99.90
2018-06-05T17:36:54.611Z,99.90
2018-06-05T17:39:22.745Z,99.90
2018-06-05T17:41:50.925Z,99.90
2018-06-05T17:44:19.091Z,99.90
2018-06-05T17:46:47.243Z,99.90
2018-06-05T17:49:15.374Z,99.90
2018-06-05T17:51:43.535Z,99.90
2018-06-05T17:54:11.684Z,99.90
2018-06-05T17:59:07.732Z,99.90
2018-06-05T18:01:35.891Z,99.90
2018-06-05T18:04:04.058Z,99.90
2018-06-05T18:06:32.185Z,99.90
2018-06-05T18:09:00.334Z,99.90
2018-06-05T18:11:28.490Z,99.90
2018-06-05T18:13:56.621Z,99.90
2018-06-05T18:16:24.774Z,99.90
2018-06-05T18:18:52.906Z,99.90
2018-06-05T18:21:21.041Z,99.90
2018-06-05T18:23:49.174Z,99.90
2018-06-05T18:26:17.311Z,99.90
2018-06-05T18:28:45.438Z,99.90
2018-06-05T18:31:13.562Z,99.90
2018-06-05T18:33:41.695Z,99.90
2018-06-05T18:36:09.849Z,99.90
2018-06-05T18:38:37.994Z,99.90
2018-06-05T18:41:06.156Z,99.90
2018-06-05T18:43:34.333Z,99.90
2018-06-05T18:46:02.566Z,99.90
2018-06-05T18:48:30.671Z,99.90
2018-06-05T18:50:58.781Z,99.90
2018-06-05T18:53:26.903Z,99.90
2018-06-05T18:55:55.014Z,99.90
2018-06-05T18:58:23.147Z,99.90
2018-06-05T19:00:51.291Z,99.90
2018-06-05T19:03:19.409Z,99.90
2018-06-05T19:05:47.533Z,99.90
2018-06-05T19:08:15.669Z,99.90
2018-06-05T19:10:43.794Z,99.90
2018-06-05T19:13:11.932Z,99.90
2018-06-05T19:15:40.068Z,99.90
2018-06-05T19:18:08.268Z,99.90
2018-06-05T19:20:37.382Z,99.90
2018-06-05T19:23:05.710Z,99.90
2018-06-05T19:25:33.843Z,99.90
2018-06-05T19:28:01.982Z,99.90
2018-06-05T19:30:30.128Z,99.90
2018-06-05T19:32:58.249Z,99.90
2018-06-05T19:35:26.378Z,99.90
2018-06-05T19:37:54.541Z,99.90
2018-06-05T19:40:22.650Z,99.90
2018-06-05T19:42:50.818Z,99.90
2018-06-05T19:45:18.946Z,99.90
2018-06-05T19:47:47.082Z,99.90
2018-06-05T19:50:15.243Z,99.90
2018-06-05T19:52:43.384Z,99.90
2018-06-05T19:55:11.511Z,99.90
2018-06-05T19:57:39.638Z,99.90
2018-06-05T20:00:07.772Z,99.90
2018-06-05T20:02:35.895Z,99.90
2018-06-05T20:05:04.062Z,99.90
2018-06-05T20:07:32.577Z,99.90
2018-06-05T20:10:00.716Z,99.90
2018-06-05T20:12:28.896Z,99.90
2018-06-05T20:14:56.971Z,99.90
2018-06-05T20:17:25.113Z,99.90
2018-06-05T20:19:53.962Z,99.90
2018-06-05T20:22:22.088Z,99.90
2018-06-05T20:24:50.210Z,99.90
2018-06-05T20:27:18.334Z,99.90
2018-06-05T20:29:46.477Z,99.90
2018-06-05T20:32:14.632Z,99.90
2018-06-05T20:34:42.746Z,99.90
2018-06-05T20:37:10.900Z,99.90
2018-06-05T20:39:39.052Z,99.90
2018-06-05T20:42:07.263Z,99.90
2018-06-05T20:44:35.483Z,99.90
2018-06-05T20:47:04.431Z,99.90
2018-06-05T20:49:32.632Z,99.90
2018-06-05T20:52:02.132Z,99.90
2018-06-05T20:54:30.558Z,99.90
2018-06-05T20:56:59.497Z,99.90
2018-06-05T20:59:27.726Z,99.90
2018-06-05T21:01:55.908Z,99.90
2018-06-05T21:04:24.163Z,99.90
2018-06-05T21:06:52.337Z,99.90
2018-06-05T21:09:20.594Z,99.90
2018-06-05T21:11:48.809Z,99.90
2018-06-05T21:14:17.038Z,99.90
2018-06-05T21:16:45.222Z,99.90
2018-06-05T21:19:13.394Z,99.90
2018-06-05T21:21:41.558Z,99.90
2018-06-05T21:24:09.888Z,99.90
2018-06-05T21:26:38.140Z,99.90
2018-06-05T21:29:06.323Z,99.90
2018-06-05T21:31:34.563Z,99.90
2018-06-05T21:34:03.637Z,99.90
2018-06-05T21:36:31.807Z,99.90
2018-06-05T21:39:00.022Z,99.90
2018-06-05T21:41:28.166Z,99.90
2018-06-05T21:43:56.451Z,99.90
2018-06-05T21:46:24.703Z,99.90
2018-06-05T21:48:52.989Z,99.90
2018-06-05T21:51:21.207Z,99.90
2018-06-05T21:53:49.389Z,99.90
2018-06-05T21:56:17.585Z,99.90
2018-06-05T21:58:45.986Z,99.90
2018-06-05T22:01:14.243Z,99.90
2018-06-05T22:03:42.513Z,99.90
2018-06-05T22:06:10.614Z,99.90
2018-06-05T22:08:38.739Z,99.90
2018-06-05T22:11:06.879Z,99.90
2018-06-05T22:13:35.006Z,99.90
2018-06-05T22:16:03.114Z,99.90
2018-06-05T22:18:31.223Z,99.90
2018-06-05T22:20:59.473Z,99.90
2018-06-05T22:23:27.589Z,99.90
2018-06-05T22:25:55.701Z,99.90
2018-06-05T22:28:23.877Z,99.90
2018-06-05T22:30:52.002Z,99.90
2018-06-05T22:33:20.100Z,99.90
2018-06-05T22:35:48.243Z,99.90
2018-06-05T22:38:16.399Z,99.90
2018-06-05T22:40:44.514Z,99.90
2018-06-05T22:43:12.649Z,99.90
2018-06-05T22:45:40.766Z,99.90
2018-06-05T22:48:08.875Z,99.90
2018-06-05T22:50:36.996Z,99.90
2018-06-05T22:53:05.114Z,99.90
2018-06-05T22:55:33.232Z,99.90
2018-06-05T22:58:01.334Z,99.90
2018-06-05T23:00:31.264Z,99.90
2018-06-05T23:02:59.439Z,99.90
2018-06-05T23:05:27.651Z,99.90
2018-06-05T23:07:55.765Z,99.90
2018-06-05T23:10:23.874Z,99.90
2018-06-05T23:12:51.984Z,99.90
2018-06-05T23:15:20.106Z,99.90
2018-06-05T23:17:48.234Z,99.90
2018-06-05T23:20:16.368Z,99.90
2018-06-05T23:22:44.478Z,99.90
2018-06-05T23:25:12.583Z,99.90
2018-06-05T23:27:40.711Z,99.90
2018-06-05T23:30:08.816Z,99.90
2018-06-05T23:32:36.933Z,99.90
2018-06-05T23:35:05.043Z,99.90
2018-06-05T23:37:33.153Z,99.90
2018-06-05T23:40:01.274Z,99.90
2018-06-05T23:42:29.434Z,99.90
2018-06-05T23:44:57.549Z,99.90
2018-06-05T23:47:25.649Z,99.90
2018-06-05T23:49:53.775Z,99.90
2018-06-05T23:52:21.905Z,99.90
2018-06-05T23:54:50.015Z,99.90
2018-06-05T23:57:18.135Z,99.90
2018-06-05T23:59:46.286Z,99.90
